Hundvaag 1 weather for Sep 2008
Month no. 255
Obs.
Da.
Temp. Dew Point Precip. Wind
Speed
Wind gusts Cloud cover Press. Humidity Wind dir. Sunny OPT
01.09.2008 15,8   0,0 0,0   7 1010,8 71,0 180,0 1 87,5 %
02.09.2008 13,5   9,0 1,0   5 1002,7 90,0 157,5 1 72,5 %
03.09.2008 10,9   16,5 0,0   4 991,5 96,0 180,0 1 62,5 %
04.09.2008 11,0   5,5 0,0   0 989,5 94,0 180,0   62,5 %
05.09.2008 10,3   11,5 0,0   1 999,3 97,0 135,0 1 60,0 %
06.09.2008 11,7   0,0 0,0   4 1001,7 91,0 45,0 1 75,0 %
07.09.2008 12,8   0,0 0,0   0 1006,8 89,0 45,0 1 67,5 %
08.09.2008 12,9   0,0 1,0   1 1009,8 93,0 337,5 1 70,0 %
09.09.2008 13,4   0,2 0,0   0 1014,2 95,0 135,0 1 67,5 %
10.09.2008 12,7   2,0 2,0   0 1011,2 77,0 180,0   67,5 %
11.09.2008 14,4   3,0 3,0   3 1012,5 70,0 157,5 1 72,5 %
12.09.2008 13,4   0,0 3,0   9 1019,3 67,0 157,5 1 90,0 %
13.09.2008 12,2   0,0 1,0   1 1028,8 61,0 157,5 1 67,5 %
14.09.2008 8,9   0,0 0,0   9 1031,2 74,0 157,5 1 85,0 %
15.09.2008 8,8   0,0 0,0   3 1031,8 72,0 157,5 1 70,0 %
16.09.2008 8,4   0,0 0,0   2 1029,5 80,0 157,5   67,5 %
17.09.2008 9,1   0,0 0,0   1 1028,4 88,0 135,0   65,0 %
18.09.2008 10,3   0,0 1,0   4 1025,1 77,0 157,5 1 75,0 %
19.09.2008 11,9   12,5 0,0   0 1020,3 97,0 90,0   55,0 %
20.09.2008 10,5   4,6 0,0   1 1028,8 89,0 292,5   65,0 %
21.09.2008 10,0   0,0 0,0   3 1028,1 87,0 337,5 1 72,5 %
22.09.2008 11,9   0,0 0,0   1 1026,7 85,0 157,5 1 67,5 %
23.09.2008 11,8   0,0 0,0   1 1027,1 89,0 45,0 1 67,5 %
24.09.2008 10,1   0,0 0,0   10 1030,5 97,0 22,5 1 90,0 %
25.09.2008 9,7   0,0 0,0   10 1035,2 96,0 270,0 1 87,5 %
26.09.2008 11,3   0,0 0,0   1 1036,2 97,0 157,5   67,5 %
27.09.2008 12,7   0,0 0,0   0 1025,7 95,0 180,0   67,5 %
28.09.2008 8,2   4,5 0,0   4 1018,3 88,0 292,5 1 70,0 %
29.09.2008 7,2   6,3 0,0   6 1008,8 97,0 270,0 1 70,0 %
30.09.2008 8,9   15,5 0,0   0 992,2 95,0 157,5 1 50,0 %
                       
Avrg/Sum 11,2   91,1 0,4   3,0 1017,4 86,5 169,5 22 70,5 %